Casterton, Victoria

3:13 PM AEDT on January 26, 2015 (GMT +1100)
KELPIE COUNTRY | Change Station
CLOSE
Current Station
Personal Weather Station
Location: Casterton, VICTORIA
Elevation: 249 ft
Nearby Weather Stations

Elev 249 ft 37.59 °S, 141.41 °E | Updated 2 seconds ago

Mostly Cloudy
Mostly Cloudy
63.7 °F
Feels Like 63.7 °F
N
9.4
Wind Variable Wind from South
Gusts 12.1 mph

Today
High -- | Low -- °F
--% Chance of Precip.
Yesterday
High -- | Low -- °F
Precip. -- in
6:40 AM 8:51 PM
Waxing Crescent, 39% visible
Pressure 30.06 in
Visibility 6.2 miles
Clouds Scattered Clouds 4000 ft
Mostly Cloudy 5500 ft
Dew Point 46 °F
Humidity 53%
Rainfall 0.00 in
Snow Depth Not available.
UV 0.0 out of 12
Pollen Not available.
Air Quality Not available.
Flu Activity Not available.
METAR YMTG 260200Z 17007KT 9999 SCT040 BKN055 16/05 Q1018

More Conditions Fewer Conditions

Pressure 30.06 in
Visibility 6.2 miles
Clouds Scattered Clouds 4000 ft
Mostly Cloudy 5500 ft
Dew Point 46 °F
Humidity 53%
Rainfall 0.00 in
Snow Depth Not available.
UV 0.0 out of 12
Pollen Not available.
Air Quality Not available.
Flu Activity Not available.
METAR YMTG 260200Z 17007KT 9999 SCT040 BKN055 16/05 Q1018

More Conditions Fewer Conditions

10-Day Weather Forecast

Almanac

Astronomy

Jan. 26, 2015 Rise Set
Actual Time
Civil Twilight
Nautical Twilight
Astronomical Twilight
Moon
Length of Visible Light
Length of Day
Tomorrow will be .
, % of the Moon is Illuminated

Today's Extremes

Country Highs Country Lows

Community

WunderPhotos

Upload Photos

1,790,132 photos uploaded!

WunderBlogs® & News

Nearby

Air Quality

  Air Quality AQ Index Pollutant
Not available.

Snow Depth

Station Depth Elevation

Earthquake Activity

City Distance Mag. Time & Date
Minimum magnitude displayed is 2.5.

Coastal Water Temperatures

Place Temperature

Nearby Weather Stations